EIN015 LIMC-EIDW
Flight info
| Callsign | EIN015 |
|---|---|
| Flight time | N/A |
| Altitude | 38000 |
| Route | AOSTA DCT ORSUD DCT MOLUS DCT IBODI DCT GOTED DCT TRO DCT CLM DCT KOPOR DCT VESAN DCT RATUK DCT SOVAT L613 SANDY DCT OKSAW DCT TEWXI DCT LANON L18 LIPGO |
| Aircraft | L101/H-SDFGHIRWXY/S |
Departure
| Time | N/A |
|---|---|
| Airport | Milan Malpensa International Airport (LIMC) |
Arrival
| Time | 2026-05-01 10:27 |
|---|---|
| Airport | Dublin Airport (EIDW) |
| Time | Latitude | Longitude | Altitude | Speed | Heading |
|---|---|---|---|---|---|
| 2026-05-01 09:22 | 48.79464 | 3.09922 | 37835 ft | 506 kts | 313° |
| 2026-05-01 09:23 | 48.87527 | 2.99812 | 37861 ft | 507 kts | 330° |
| 2026-05-01 09:24 | 48.96515 | 2.91333 | 37838 ft | 506 kts | 328° |
| 2026-05-01 09:25 | 49.08527 | 2.80499 | 37834 ft | 496 kts | 330° |
| 2026-05-01 09:26 | 49.17470 | 2.72587 | 37831 ft | 495 kts | 330° |
| 2026-05-01 09:26 | 49.26413 | 2.64671 | 37837 ft | 496 kts | 330° |
| 2026-05-01 09:27 | 49.35369 | 2.56716 | 37829 ft | 496 kts | 329° |
| 2026-05-01 09:28 | 49.41306 | 2.51424 | 37825 ft | 496 kts | 329° |
| 2026-05-01 09:28 | 49.47277 | 2.46088 | 37831 ft | 496 kts | 329° |
| 2026-05-01 09:29 | 49.56880 | 2.40398 | 37838 ft | 495 kts | 343° |
| 2026-05-01 09:30 | 49.66711 | 2.35431 | 37830 ft | 495 kts | 343° |
| 2026-05-01 09:30 | 49.76609 | 2.30819 | 37823 ft | 495 kts | 343° |
| 2026-05-01 09:31 | 49.83211 | 2.27786 | 37827 ft | 494 kts | 343° |
| 2026-05-01 09:32 | 49.93073 | 2.23256 | 37820 ft | 496 kts | 343° |
| 2026-05-01 09:32 | 50.03007 | 2.18681 | 37817 ft | 496 kts | 343° |
| 2026-05-01 09:33 | 50.09626 | 2.15624 | 37816 ft | 496 kts | 343° |
| 2026-05-01 09:34 | 50.19557 | 2.11022 | 37816 ft | 496 kts | 343° |
| 2026-05-01 09:34 | 50.29482 | 2.06401 | 37817 ft | 496 kts | 343° |
| 2026-05-01 09:35 | 50.38641 | 1.99379 | 37822 ft | 490 kts | 319° |
| 2026-05-01 09:36 | 50.43956 | 1.92584 | 37820 ft | 494 kts | 321° |
| 2026-05-01 09:36 | 50.49329 | 1.85969 | 37826 ft | 494 kts | 319° |
| 2026-05-01 09:37 | 50.54574 | 1.78988 | 37838 ft | 493 kts | 317° |
| 2026-05-01 09:37 | 50.62346 | 1.68399 | 37832 ft | 492 kts | 317° |
| 2026-05-01 09:38 | 50.70079 | 1.57724 | 37809 ft | 492 kts | 317° |
| 2026-05-01 09:39 | 50.77747 | 1.47060 | 37825 ft | 492 kts | 317° |
| 2026-05-01 09:39 | 50.82881 | 1.39913 | 37835 ft | 492 kts | 317° |
| 2026-05-01 09:40 | 50.90573 | 1.29171 | 37830 ft | 492 kts | 317° |
| 2026-05-01 09:41 | 50.95715 | 1.21978 | 37834 ft | 492 kts | 317° |
| 2026-05-01 09:41 | 51.03359 | 1.11121 | 37797 ft | 491 kts | 311° |
| 2026-05-01 09:42 | 51.05375 | 1.06795 | 37756 ft | 484 kts | 295° |
| 2026-05-01 09:42 | 51.06714 | 1.01933 | 37858 ft | 479 kts | 290° |
| 2026-05-01 09:43 | 51.12338 | 0.82422 | 37781 ft | 486 kts | 290° |
| 2026-05-01 09:43 | 51.14877 | 0.72457 | 37747 ft | 485 kts | 289° |
| 2026-05-01 09:44 | 51.18570 | 0.57504 | 37695 ft | 485 kts | 289° |
| 2026-05-01 09:45 | 51.21019 | 0.47476 | 37711 ft | 485 kts | 289° |
| 2026-05-01 09:45 | 51.24667 | 0.32397 | 37691 ft | 485 kts | 288° |
| 2026-05-01 09:46 | 51.27084 | 0.22340 | 37719 ft | 485 kts | 288° |
| 2026-05-01 09:46 | 51.29490 | 0.12283 | 37764 ft | 485 kts | 288° |
| 2026-05-01 09:47 | 51.31892 | 0.02197 | 37792 ft | 485 kts | 288° |
| 2026-05-01 09:47 | 51.34280 | -0.07880 | 37792 ft | 485 kts | 288° |
| 2026-05-01 09:48 | 51.36659 | -0.17972 | 37785 ft | 485 kts | 288° |
| 2026-05-01 09:48 | 51.39029 | -0.28071 | 37782 ft | 485 kts | 288° |
| 2026-05-01 09:49 | 51.41395 | -0.38193 | 37778 ft | 485 kts | 288° |
| 2026-05-01 09:49 | 51.43748 | -0.48314 | 37776 ft | 485 kts | 288° |
| 2026-05-01 09:50 | 51.46077 | -0.58376 | 37774 ft | 485 kts | 288° |
| 2026-05-01 09:50 | 51.48413 | -0.68514 | 37778 ft | 485 kts | 288° |
| 2026-05-01 09:51 | 51.50741 | -0.78666 | 37781 ft | 485 kts | 288° |
| 2026-05-01 09:51 | 51.53059 | -0.88826 | 37778 ft | 485 kts | 288° |
| 2026-05-01 09:52 | 51.55370 | -0.99000 | 37755 ft | 485 kts | 288° |
| 2026-05-01 09:52 | 51.57666 | -1.09159 | 37751 ft | 483 kts | 288° |
| 2026-05-01 09:53 | 51.59947 | -1.19301 | 37752 ft | 482 kts | 287° |
| 2026-05-01 09:53 | 51.62219 | -1.29459 | 37753 ft | 482 kts | 287° |
| 2026-05-01 09:54 | 51.64484 | -1.39631 | 37751 ft | 482 kts | 287° |
| 2026-05-01 09:54 | 51.66737 | -1.49798 | 37753 ft | 482 kts | 287° |
| 2026-05-01 09:55 | 51.68980 | -1.59963 | 37750 ft | 480 kts | 287° |
| 2026-05-01 09:55 | 51.71370 | -1.70016 | 37758 ft | 481 kts | 292° |
| 2026-05-01 09:56 | 51.74231 | -1.79795 | 37756 ft | 482 kts | 293° |
| 2026-05-01 09:56 | 51.76623 | -1.87919 | 37758 ft | 482 kts | 294° |
| 2026-05-01 09:57 | 51.80050 | -1.99229 | 37758 ft | 482 kts | 293° |
| 2026-05-01 09:57 | 51.82790 | -2.09103 | 37746 ft | 481 kts | 292° |
| 2026-05-01 09:58 | 51.85079 | -2.17314 | 37752 ft | 482 kts | 292° |
| 2026-05-01 09:58 | 51.87857 | -2.27178 | 37752 ft | 482 kts | 292° |
| 2026-05-01 09:59 | 51.90600 | -2.37080 | 37750 ft | 482 kts | 292° |
| 2026-05-01 09:59 | 51.93329 | -2.46987 | 37764 ft | 482 kts | 292° |
| 2026-05-01 10:00 | 51.96055 | -2.56923 | 37761 ft | 483 kts | 292° |
| 2026-05-01 10:00 | 51.98775 | -2.66883 | 37763 ft | 483 kts | 291° |
| 2026-05-01 10:01 | 52.01470 | -2.76793 | 37768 ft | 483 kts | 291° |
| 2026-05-01 10:01 | 52.04171 | -2.86768 | 37763 ft | 483 kts | 291° |
| 2026-05-01 10:02 | 52.06864 | -2.96757 | 37766 ft | 483 kts | 291° |
| 2026-05-01 10:02 | 52.09551 | -3.06770 | 37762 ft | 483 kts | 291° |
| 2026-05-01 10:03 | 52.12232 | -3.16802 | 37764 ft | 483 kts | 291° |
| 2026-05-01 10:03 | 52.14905 | -3.26847 | 37764 ft | 484 kts | 291° |
| 2026-05-01 10:04 | 52.17570 | -3.36906 | 37823 ft | 482 kts | 291° |
| 2026-05-01 10:04 | 52.18895 | -3.41926 | 38022 ft | 482 kts | 291° |
| 2026-05-01 10:04 | 52.20221 | -3.46959 | 38156 ft | 486 kts | 290° |
| 2026-05-01 10:05 | 52.22887 | -3.57118 | 38183 ft | 487 kts | 290° |
| 2026-05-01 10:05 | 52.25548 | -3.67291 | 38161 ft | 488 kts | 290° |
| 2026-05-01 10:06 | 52.26861 | -3.72336 | 37716 ft | 491 kts | 290° |
| 2026-05-01 10:06 | 52.28194 | -3.77463 | 37062 ft | 489 kts | 290° |
| 2026-05-01 10:06 | 52.29515 | -3.82545 | 36420 ft | 483 kts | 290° |
| 2026-05-01 10:06 | 52.30833 | -3.87631 | 35804 ft | 476 kts | 290° |
| 2026-05-01 10:07 | 52.32097 | -3.92523 | 35207 ft | 471 kts | 290° |
| 2026-05-01 10:07 | 52.33360 | -3.97433 | 34643 ft | 466 kts | 289° |
| 2026-05-01 10:07 | 52.34606 | -4.02295 | 34056 ft | 462 kts | 289° |
| 2026-05-01 10:07 | 52.35843 | -4.07131 | 33388 ft | 459 kts | 289° |
| 2026-05-01 10:08 | 52.38279 | -4.16685 | 32234 ft | 450 kts | 289° |
| 2026-05-01 10:08 | 52.39477 | -4.21395 | 31720 ft | 446 kts | 289° |
| 2026-05-01 10:08 | 52.40663 | -4.26071 | 31211 ft | 443 kts | 289° |
| 2026-05-01 10:09 | 52.41839 | -4.30713 | 30723 ft | 440 kts | 290° |
| 2026-05-01 10:09 | 52.43287 | -4.35136 | 30173 ft | 442 kts | 302° |
| 2026-05-01 10:09 | 52.45249 | -4.39008 | 29646 ft | 440 kts | 309° |
| 2026-05-01 10:09 | 52.47281 | -4.42739 | 29075 ft | 438 kts | 307° |
| 2026-05-01 10:10 | 52.49215 | -4.46569 | 28530 ft | 434 kts | 306° |
| 2026-05-01 10:10 | 52.51118 | -4.50402 | 28012 ft | 432 kts | 306° |
| 2026-05-01 10:10 | 52.55070 | -4.57800 | 26972 ft | 429 kts | 309° |
| 2026-05-01 10:11 | 52.57091 | -4.61392 | 26470 ft | 427 kts | 309° |
| 2026-05-01 10:11 | 52.59109 | -4.64955 | 25977 ft | 424 kts | 309° |
| 2026-05-01 10:11 | 52.61111 | -4.68496 | 25471 ft | 421 kts | 309° |
| 2026-05-01 10:11 | 52.63073 | -4.71971 | 24994 ft | 418 kts | 309° |
| 2026-05-01 10:12 | 52.65071 | -4.75509 | 24501 ft | 416 kts | 309° |
| 2026-05-01 10:12 | 52.67033 | -4.78983 | 24064 ft | 413 kts | 309° |
| 2026-05-01 10:12 | 52.70906 | -4.85898 | 23019 ft | 407 kts | 309° |
| 2026-05-01 10:13 | 52.72795 | -4.89277 | 22491 ft | 404 kts | 309° |
| 2026-05-01 10:13 | 52.74695 | -4.92666 | 21961 ft | 401 kts | 309° |
| 2026-05-01 10:13 | 52.76580 | -4.96021 | 21443 ft | 397 kts | 309° |
| 2026-05-01 10:14 | 52.80300 | -5.02647 | 20439 ft | 390 kts | 309° |
| 2026-05-01 10:14 | 52.82129 | -5.05928 | 19967 ft | 387 kts | 309° |
| 2026-05-01 10:14 | 52.83946 | -5.09199 | 19470 ft | 385 kts | 309° |
| 2026-05-01 10:14 | 52.85752 | -5.12449 | 18990 ft | 383 kts | 309° |
| 2026-05-01 10:15 | 52.87551 | -5.15683 | 18520 ft | 380 kts | 309° |
| 2026-05-01 10:15 | 52.89339 | -5.18893 | 17991 ft | 378 kts | 309° |
| 2026-05-01 10:15 | 52.91114 | -5.22083 | 17462 ft | 375 kts | 309° |
| 2026-05-01 10:15 | 52.92872 | -5.25247 | 16943 ft | 372 kts | 309° |
| 2026-05-01 10:16 | 52.94617 | -5.28392 | 16423 ft | 369 kts | 309° |
| 2026-05-01 10:16 | 52.96347 | -5.31513 | 15915 ft | 366 kts | 309° |
| 2026-05-01 10:16 | 52.99765 | -5.37695 | 14935 ft | 361 kts | 309° |
| 2026-05-01 10:17 | 53.01449 | -5.40762 | 14456 ft | 358 kts | 308° |
| 2026-05-01 10:17 | 53.04771 | -5.46845 | 13440 ft | 352 kts | 308° |
| 2026-05-01 10:17 | 53.06344 | -5.49933 | 12909 ft | 350 kts | 310° |
| 2026-05-01 10:18 | 53.09973 | -5.55129 | 11898 ft | 343 kts | 320° |
| 2026-05-01 10:18 | 53.11879 | -5.57478 | 11443 ft | 338 kts | 321° |
| 2026-05-01 10:18 | 53.13757 | -5.59722 | 11203 ft | 327 kts | 321° |
| 2026-05-01 10:19 | 53.15586 | -5.61879 | 10969 ft | 318 kts | 322° |
| 2026-05-01 10:19 | 53.17374 | -5.63975 | 10719 ft | 311 kts | 322° |
| 2026-05-01 10:19 | 53.19151 | -5.66055 | 10489 ft | 314 kts | 322° |
| 2026-05-01 10:20 | 53.22716 | -5.70228 | 9758 ft | 312 kts | 322° |
| 2026-05-01 10:20 | 53.24491 | -5.72307 | 9287 ft | 312 kts | 322° |
| 2026-05-01 10:20 | 53.26269 | -5.74391 | 8803 ft | 312 kts | 322° |
| 2026-05-01 10:20 | 53.28046 | -5.76475 | 8350 ft | 311 kts | 322° |
| 2026-05-01 10:21 | 53.29814 | -5.78551 | 7883 ft | 311 kts | 322° |
| 2026-05-01 10:21 | 53.33631 | -5.81863 | 6961 ft | 309 kts | 342° |
| 2026-05-01 10:21 | 53.35670 | -5.82735 | 6497 ft | 296 kts | 346° |
| 2026-05-01 10:22 | 53.39563 | -5.84028 | 5583 ft | 275 kts | 346° |
| 2026-05-01 10:22 | 53.42437 | -5.87434 | 4885 ft | 241 kts | 292° |
| 2026-05-01 10:23 | 53.42867 | -5.90020 | 4348 ft | 227 kts | 272° |
| 2026-05-01 10:23 | 53.42875 | -5.95060 | 3575 ft | 203 kts | 262° |
| 2026-05-01 10:23 | 53.42803 | -5.97356 | 3253 ft | 195 kts | 262° |
| 2026-05-01 10:24 | 53.42597 | -6.01824 | 2969 ft | 184 kts | 256° |
| 2026-05-01 10:24 | 53.42209 | -6.05851 | 2713 ft | 182 kts | 266° |
| 2026-05-01 10:25 | 53.42778 | -6.10273 | 2048 ft | 192 kts | 278° |
| 2026-05-01 10:25 | 53.43070 | -6.14513 | 1590 ft | 176 kts | 266° |
| 2026-05-01 10:26 | 53.43099 | -6.16498 | 1305 ft | 164 kts | 267° |
| 2026-05-01 10:26 | 53.43175 | -6.18325 | 995 ft | 150 kts | 269° |
| 2026-05-01 10:26 | 53.43319 | -6.21611 | 578 ft | 138 kts | 274° |
| 2026-05-01 10:27 | 53.43528 | -6.24723 | 220 ft | 125 kts | 275° |
| 2026-05-01 10:27 | 53.43648 | -6.26843 | 225 ft | 45 kts | 277° |
| 2026-05-01 10:28 | 53.43622 | -6.27256 | 218 ft | 33 kts | 251° |
| 2026-05-01 10:28 | 53.43522 | -6.27439 | 220 ft | 8 kts | 141° |
| 2026-05-01 10:28 | 53.43505 | -6.27334 | 216 ft | 12 kts | 95° |
| 2026-05-01 10:29 | 53.43483 | -6.26939 | 216 ft | 22 kts | 95° |
| 2026-05-01 10:29 | 53.43467 | -6.26664 | 222 ft | 26 kts | 95° |
| 2026-05-01 10:30 | 53.43396 | -6.26311 | 218 ft | 6 kts | 137° |
| 2026-05-01 10:30 | 53.43304 | -6.26152 | 221 ft | 14 kts | 98° |
| 2026-05-01 10:31 | 53.43387 | -6.25773 | 216 ft | 12 kts | 68° |
| 2026-05-01 10:31 | 53.43279 | -6.25593 | 221 ft | 17 kts | 156° |
| 2026-05-01 10:32 | 53.43010 | -6.25395 | 227 ft | 25 kts | 156° |
| 2026-05-01 10:32 | 53.42865 | -6.25286 | 224 ft | 19 kts | 141° |
| 2026-05-01 10:32 | 53.42728 | -6.24992 | 225 ft | 12 kts | 140° |
| 2026-05-01 10:33 | 53.42726 | -6.24902 | 225 ft | 2 kts | 58° |
| 2026-05-01 10:33 | 53.42735 | -6.24878 | 216 ft | 1 kts | 58° |
| 2026-05-01 10:34 | 53.42739 | -6.24869 | 220 ft | 0 kts | 58° |
| 2026-05-01 10:34 | 53.42739 | -6.24868 | 216 ft | 0 kts | 58° |
| 2026-05-01 10:35 | 53.42747 | -6.24847 | 216 ft | 0 kts | 58° |